createdAt,value
2018-11-11T12:24:30.059Z,66.2
2018-11-11T12:25:31.444Z,65.9
2018-11-11T12:26:53.420Z,66.2
2018-11-11T12:27:20.700Z,66.1
2018-11-11T12:28:22.085Z,65.9
2018-11-11T12:29:45.372Z,66.2
2018-11-11T12:30:46.814Z,66.0
2018-11-11T12:32:09.772Z,66.1
2018-11-11T12:33:11.232Z,65.9
2018-11-11T12:34:33.279Z,66.4
2018-11-11T12:35:34.660Z,66.0
2018-11-11T12:36:56.668Z,66.0
2018-11-11T12:37:58.052Z,66.4
2018-11-11T12:39:20.147Z,66.2
2018-11-11T12:40:21.500Z,66.1
2018-11-11T12:41:43.316Z,66.2
2018-11-11T12:42:44.703Z,66.0
2018-11-11T12:44:06.684Z,66.5
2018-11-11T12:45:08.069Z,66.0
2018-11-11T12:46:30.045Z,66.4
2018-11-11T12:47:31.437Z,66.8
2018-11-11T12:48:53.413Z,66.6
2018-11-11T12:49:54.797Z,66.4
2018-11-11T12:51:16.925Z,66.9
2018-11-11T12:52:18.311Z,66.8
2018-11-11T12:53:40.276Z,66.7
2018-11-11T12:54:41.693Z,66.9
2018-11-11T12:56:03.668Z,66.7
2018-11-11T12:57:05.069Z,66.8
2018-11-11T12:58:27.085Z,66.8
2018-11-11T12:59:28.476Z,66.8
2018-11-11T13:00:50.442Z,66.5
2018-11-11T13:01:51.821Z,67.0
2018-11-11T13:03:13.797Z,66.9
2018-11-11T13:04:15.205Z,66.5
2018-11-11T13:05:37.293Z,66.4
2018-11-11T13:06:38.677Z,66.6
2018-11-11T13:08:00.678Z,66.4
2018-11-11T13:09:01.997Z,66.7
2018-11-11T13:10:23.965Z,66.2
2018-11-11T13:11:25.413Z,66.1
2018-11-11T13:12:47.367Z,66.2
2018-11-11T13:13:48.765Z,66.3
2018-11-11T13:15:10.733Z,66.5
2018-11-11T13:16:12.118Z,66.1
2018-11-11T13:17:34.085Z,66.2
2018-11-11T13:18:35.470Z,66.1
2018-11-11T13:19:57.527Z,66.3
2018-11-11T13:20:58.846Z,66.0
2018-11-11T13:22:20.937Z,66.6
2018-11-11T13:23:22.166Z,66.0
2018-11-11T13:24:44.135Z,66.7
2018-11-11T13:25:45.510Z,66.7
2018-11-11T13:27:07.726Z,66.4
2018-11-11T13:28:09.142Z,66.7
2018-11-11T13:29:31.285Z,66.3
2018-11-11T13:30:32.662Z,66.6
2018-11-11T13:31:54.634Z,66.2
2018-11-11T13:32:56.014Z,66.5
2018-11-11T13:34:18.142Z,66.6
2018-11-11T13:35:19.525Z,66.7
2018-11-11T13:36:41.494Z,66.5
2018-11-11T13:37:42.934Z,66.2
2018-11-11T13:39:04.846Z,66.5
2018-11-11T13:40:06.231Z,66.1
2018-11-11T13:41:28.422Z,66.6
2018-11-11T13:42:29.806Z,66.5
2018-11-11T13:43:51.776Z,66.4
2018-11-11T13:44:53.158Z,66.0
2018-11-11T13:46:15.354Z,65.9
2018-11-11T13:47:16.622Z,66.2
2018-11-11T13:48:38.742Z,66.2
2018-11-11T13:49:40.126Z,66.1
2018-11-11T13:51:02.110Z,66.2
2018-11-11T13:52:03.502Z,66.0
2018-11-11T13:53:25.471Z,66.0
2018-11-11T13:54:26.863Z,66.2
2018-11-11T13:55:49.010Z,66.1
2018-11-11T13:56:50.375Z,66.4
2018-11-11T13:58:12.344Z,66.5
2018-11-11T13:59:13.727Z,66.0
2018-11-11T14:00:35.694Z,66.7
2018-11-11T14:01:37.145Z,66.8
2018-11-11T14:02:59.210Z,66.5
2018-11-11T14:04:00.599Z,66.6
2018-11-11T14:05:22.559Z,66.4
2018-11-11T14:06:23.943Z,65.9
2018-11-11T14:07:45.903Z,66.0
2018-11-11T14:08:47.294Z,65.9
2018-11-11T14:10:09.425Z,66.5
2018-11-11T14:11:10.849Z,66.5
2018-11-11T14:12:32.746Z,66.4
2018-11-11T14:13:34.130Z,66.7
2018-11-11T14:14:56.095Z,66.6
2018-11-11T14:15:57.528Z,66.4
2018-11-11T14:17:19.599Z,66.4
2018-11-11T14:18:21.033Z,66.6
2018-11-11T14:19:43.033Z,66.4
2018-11-11T14:20:44.343Z,66.5
2018-11-11T14:22:06.327Z,66.5
2018-11-11T14:23:07.706Z,66.1
2018-11-11T14:24:29.840Z,67.1
2018-11-11T14:25:31.299Z,67.1
2018-11-11T14:26:53.309Z,67.2
2018-11-11T14:27:54.631Z,66.9
2018-11-11T14:29:16.599Z,66.9
2018-11-11T14:30:17.983Z,67.2
2018-11-11T14:31:40.111Z,67.4
2018-11-11T14:32:41.574Z,67.4
2018-11-11T14:34:03.439Z,67.5
2018-11-11T14:35:04.823Z,67.6
2018-11-11T14:36:26.800Z,67.6
2018-11-11T14:37:28.184Z,68.1
2018-11-11T14:38:50.312Z,68.3
2018-11-11T14:39:51.757Z,68.4
2018-11-11T14:41:13.632Z,68.5
2018-11-11T14:42:15.016Z,68.4
2018-11-11T14:43:37.000Z,68.4
2018-11-11T14:44:38.393Z,68.5
2018-11-11T14:46:00.553Z,68.9
2018-11-11T14:47:01.920Z,68.6
2018-11-11T14:48:23.888Z,68.7
2018-11-11T14:49:25.360Z,68.5
2018-11-11T14:50:47.336Z,68.7
2018-11-11T14:51:49.072Z,68.6
2018-11-11T14:53:10.960Z,68.7
2018-11-11T14:54:12.352Z,68.7
2018-11-11T14:55:34.352Z,68.7
2018-11-11T14:56:35.728Z,68.7
2018-11-11T14:57:57.739Z,68.6
2018-11-11T14:58:59.245Z,68.4
2018-11-11T15:00:21.136Z,68.4
2018-11-11T15:01:22.513Z,68.7
2018-11-11T15:02:44.507Z,68.8
2018-11-11T15:03:45.923Z,68.7
2018-11-11T15:05:07.872Z,68.6
2018-11-11T15:06:09.265Z,68.7
2018-11-11T15:07:31.552Z,68.7
2018-11-11T15:08:32.936Z,68.7
2018-11-11T15:09:54.904Z,68.8
2018-11-11T15:10:56.288Z,68.7
2018-11-11T15:12:18.256Z,68.9
2018-11-11T15:13:19.718Z,68.8
2018-11-11T15:14:41.769Z,68.9
2018-11-11T15:15:43.293Z,68.9
2018-11-11T15:17:05.297Z,68.6
2018-11-11T15:18:06.682Z,68.6
2018-11-11T15:19:28.862Z,68.8
2018-11-11T15:20:30.057Z,69.2
2018-11-11T15:21:52.210Z,69.2
2018-11-11T15:22:53.592Z,69.2
2018-11-11T15:24:15.570Z,69.4
2018-11-11T15:25:16.987Z,69.0
2018-11-11T15:26:38.904Z,69.1
2018-11-11T15:27:40.329Z,69.2
2018-11-11T15:29:02.538Z,69.3
2018-11-11T15:30:03.929Z,69.2
2018-11-11T15:31:25.908Z,68.7
2018-11-11T15:32:27.281Z,69.1
2018-11-11T15:33:49.281Z,69.0
2018-11-11T15:34:50.665Z,69.2
2018-11-11T15:36:12.865Z,68.9
